sensor_id;sensor_type;location;lat;lon;timestamp;temperature;humidity
43665;DHT22;29263;48.172;11.484;2023-04-25T00:02:10;6.90;99.90
43665;DHT22;29263;48.172;11.484;2023-04-25T00:04:36;7.00;99.90
43665;DHT22;29263;48.172;11.484;2023-04-25T00:07:04;7.00;99.90
43665;DHT22;29263;48.172;11.484;2023-04-25T00:09:31;7.00;99.90
43665;DHT22;29263;48.172;11.484;2023-04-25T00:11:57;7.10;99.90
43665;DHT22;29263;48.172;11.484;2023-04-25T00:14:22;7.10;99.90
43665;DHT22;29263;48.172;11.484;2023-04-25T00:16:48;7.10;99.90
43665;DHT22;29263;48.172;11.484;2023-04-25T00:19:14;7.10;99.90
43665;DHT22;29263;48.172;11.484;2023-04-25T00:21:40;7.20;99.90
43665;DHT22;29263;48.172;11.484;2023-04-25T00:24:06;7.30;99.90
43665;DHT22;29263;48.172;11.484;2023-04-25T00:26:33;7.30;99.90
43665;DHT22;29263;48.172;11.484;2023-04-25T00:28:59;7.30;99.90
43665;DHT22;29263;48.172;11.484;2023-04-25T00:31:25;7.30;99.90
43665;DHT22;29263;48.172;11.484;2023-04-25T00:33:51;7.40;99.90
43665;DHT22;29263;48.172;11.484;2023-04-25T00:36:16;7.40;99.90
43665;DHT22;29263;48.172;11.484;2023-04-25T00:38:43;7.40;99.90
43665;DHT22;29263;48.172;11.484;2023-04-25T00:41:09;7.40;99.90
43665;DHT22;29263;48.172;11.484;2023-04-25T00:43:36;7.40;99.90
43665;DHT22;29263;48.172;11.484;2023-04-25T00:46:02;7.30;99.90
43665;DHT22;29263;48.172;11.484;2023-04-25T00:48:27;7.30;99.90
43665;DHT22;29263;48.172;11.484;2023-04-25T00:50:55;7.30;99.90
43665;DHT22;29263;48.172;11.484;2023-04-25T00:53:22;7.20;99.90
43665;DHT22;29263;48.172;11.484;2023-04-25T00:55:49;7.20;99.90
43665;DHT22;29263;48.172;11.484;2023-04-25T00:58:17;7.10;99.90
43665;DHT22;29263;48.172;11.484;2023-04-25T01:00:45;7.00;99.90
43665;DHT22;29263;48.172;11.484;2023-04-25T01:03:11;7.00;99.90
43665;DHT22;29263;48.172;11.484;2023-04-25T01:05:37;6.90;99.90
43665;DHT22;29263;48.172;11.484;2023-04-25T01:08:02;6.90;99.90
43665;DHT22;29263;48.172;11.484;2023-04-25T01:10:28;6.80;99.90
43665;DHT22;29263;48.172;11.484;2023-04-25T01:12:54;6.80;99.90
43665;DHT22;29263;48.172;11.484;2023-04-25T01:15:20;6.70;99.90
43665;DHT22;29263;48.172;11.484;2023-04-25T01:17:45;6.60;99.90
43665;DHT22;29263;48.172;11.484;2023-04-25T01:20:12;6.70;99.90
43665;DHT22;29263;48.172;11.484;2023-04-25T01:22:39;6.60;99.90
43665;DHT22;29263;48.172;11.484;2023-04-25T01:25:05;6.60;99.90
43665;DHT22;29263;48.172;11.484;2023-04-25T01:27:32;6.50;99.90
43665;DHT22;29263;48.172;11.484;2023-04-25T01:29:58;6.50;99.90
43665;DHT22;29263;48.172;11.484;2023-04-25T01:32:25;6.40;99.90
43665;DHT22;29263;48.172;11.484;2023-04-25T01:34:51;6.40;99.90
43665;DHT22;29263;48.172;11.484;2023-04-25T01:37:17;6.40;99.90
43665;DHT22;29263;48.172;11.484;2023-04-25T01:39:43;6.30;99.90
43665;DHT22;29263;48.172;11.484;2023-04-25T01:42:09;6.20;99.90
43665;DHT22;29263;48.172;11.484;2023-04-25T01:44:35;6.20;99.90
43665;DHT22;29263;48.172;11.484;2023-04-25T01:47:01;6.20;99.90
43665;DHT22;29263;48.172;11.484;2023-04-25T01:49:26;6.20;99.90
43665;DHT22;29263;48.172;11.484;2023-04-25T01:51:52;6.10;99.90
43665;DHT22;29263;48.172;11.484;2023-04-25T01:54:18;6.00;99.90
43665;DHT22;29263;48.172;11.484;2023-04-25T01:56:50;6.00;99.90
43665;DHT22;29263;48.172;11.484;2023-04-25T01:59:18;6.00;99.90
43665;DHT22;29263;48.172;11.484;2023-04-25T02:01:45;5.90;99.90
43665;DHT22;29263;48.172;11.484;2023-04-25T02:04:11;5.90;99.90
43665;DHT22;29263;48.172;11.484;2023-04-25T02:06:36;5.90;99.90
43665;DHT22;29263;48.172;11.484;2023-04-25T02:09:02;5.90;99.90
43665;DHT22;29263;48.172;11.484;2023-04-25T02:11:27;5.90;99.90
43665;DHT22;29263;48.172;11.484;2023-04-25T02:13:53;5.80;99.90
43665;DHT22;29263;48.172;11.484;2023-04-25T02:16:19;5.80;99.90
43665;DHT22;29263;48.172;11.484;2023-04-25T02:18:44;5.70;99.90
43665;DHT22;29263;48.172;11.484;2023-04-25T02:21:10;5.70;99.90
43665;DHT22;29263;48.172;11.484;2023-04-25T02:23:36;5.80;99.90
43665;DHT22;29263;48.172;11.484;2023-04-25T02:26:02;5.80;99.90
43665;DHT22;29263;48.172;11.484;2023-04-25T02:28:28;5.80;99.90
43665;DHT22;29263;48.172;11.484;2023-04-25T02:30:54;5.80;99.90
43665;DHT22;29263;48.172;11.484;2023-04-25T02:33:19;5.80;99.90
43665;DHT22;29263;48.172;11.484;2023-04-25T02:35:46;5.80;99.90
43665;DHT22;29263;48.172;11.484;2023-04-25T02:38:12;5.80;99.90
43665;DHT22;29263;48.172;11.484;2023-04-25T02:40:37;5.90;99.90
43665;DHT22;29263;48.172;11.484;2023-04-25T02:43:03;5.90;99.90
43665;DHT22;29263;48.172;11.484;2023-04-25T02:45:29;5.90;99.90
43665;DHT22;29263;48.172;11.484;2023-04-25T02:47:54;6.00;99.90
43665;DHT22;29263;48.172;11.484;2023-04-25T02:50:20;6.00;99.90
43665;DHT22;29263;48.172;11.484;2023-04-25T02:52:46;6.00;99.90
43665;DHT22;29263;48.172;11.484;2023-04-25T02:55:13;6.00;99.90
43665;DHT22;29263;48.172;11.484;2023-04-25T02:57:38;6.00;99.90
43665;DHT22;29263;48.172;11.484;2023-04-25T03:00:05;6.10;99.90
43665;DHT22;29263;48.172;11.484;2023-04-25T03:02:31;6.20;99.90
43665;DHT22;29263;48.172;11.484;2023-04-25T03:04:56;6.20;99.90
43665;DHT22;29263;48.172;11.484;2023-04-25T03:07:22;6.20;99.90
43665;DHT22;29263;48.172;11.484;2023-04-25T03:09:47;6.40;99.90
43665;DHT22;29263;48.172;11.484;2023-04-25T03:12:13;6.50;99.90
43665;DHT22;29263;48.172;11.484;2023-04-25T03:14:39;6.60;99.90
43665;DHT22;29263;48.172;11.484;2023-04-25T03:17:04;6.80;99.90
43665;DHT22;29263;48.172;11.484;2023-04-25T03:19:30;6.90;99.90
43665;DHT22;29263;48.172;11.484;2023-04-25T03:21:55;7.00;99.90
43665;DHT22;29263;48.172;11.484;2023-04-25T03:24:21;7.00;99.90
43665;DHT22;29263;48.172;11.484;2023-04-25T03:26:47;7.00;99.90
43665;DHT22;29263;48.172;11.484;2023-04-25T03:29:13;6.90;99.90
43665;DHT22;29263;48.172;11.484;2023-04-25T03:31:38;6.90;99.90
43665;DHT22;29263;48.172;11.484;2023-04-25T03:34:04;6.90;99.90
43665;DHT22;29263;48.172;11.484;2023-04-25T03:36:30;6.90;99.90
43665;DHT22;29263;48.172;11.484;2023-04-25T03:38:55;6.80;99.90
43665;DHT22;29263;48.172;11.484;2023-04-25T03:41:21;6.80;99.90
43665;DHT22;29263;48.172;11.484;2023-04-25T03:43:47;6.80;99.90
43665;DHT22;29263;48.172;11.484;2023-04-25T03:46:12;6.70;99.90
43665;DHT22;29263;48.172;11.484;2023-04-25T03:48:38;6.70;99.90
43665;DHT22;29263;48.172;11.484;2023-04-25T03:51:04;6.70;99.90
43665;DHT22;29263;48.172;11.484;2023-04-25T03:53:30;6.70;99.90
43665;DHT22;29263;48.172;11.484;2023-04-25T03:55:55;6.70;99.90
43665;DHT22;29263;48.172;11.484;2023-04-25T03:58:21;6.70;99.90
43665;DHT22;29263;48.172;11.484;2023-04-25T04:00:48;6.70;99.90
43665;DHT22;29263;48.172;11.484;2023-04-25T04:03:13;6.70;99.90
43665;DHT22;29263;48.172;11.484;2023-04-25T04:05:39;6.80;99.90
43665;DHT22;29263;48.172;11.484;2023-04-25T04:08:06;6.70;99.90
43665;DHT22;29263;48.172;11.484;2023-04-25T04:10:31;6.60;99.90
43665;DHT22;29263;48.172;11.484;2023-04-25T04:12:57;6.60;99.90
43665;DHT22;29263;48.172;11.484;2023-04-25T04:15:22;6.60;99.90
43665;DHT22;29263;48.172;11.484;2023-04-25T04:17:48;6.60;99.90
43665;DHT22;29263;48.172;11.484;2023-04-25T04:20:14;6.60;99.90
43665;DHT22;29263;48.172;11.484;2023-04-25T04:22:40;6.60;99.90
43665;DHT22;29263;48.172;11.484;2023-04-25T04:25:06;6.70;99.90
43665;DHT22;29263;48.172;11.484;2023-04-25T04:27:32;6.70;99.90
43665;DHT22;29263;48.172;11.484;2023-04-25T04:29:57;6.70;99.90
43665;DHT22;29263;48.172;11.484;2023-04-25T04:32:23;6.80;99.90
43665;DHT22;29263;48.172;11.484;2023-04-25T04:34:49;6.80;99.90
43665;DHT22;29263;48.172;11.484;2023-04-25T04:37:15;6.80;99.90
43665;DHT22;29263;48.172;11.484;2023-04-25T04:39:40;6.80;99.90
43665;DHT22;29263;48.172;11.484;2023-04-25T04:42:06;6.90;99.90
43665;DHT22;29263;48.172;11.484;2023-04-25T04:44:32;6.90;99.90
43665;DHT22;29263;48.172;11.484;2023-04-25T04:46:59;6.90;99.90
43665;DHT22;29263;48.172;11.484;2023-04-25T04:49:24;6.90;99.90
43665;DHT22;29263;48.172;11.484;2023-04-25T04:51:50;7.00;99.90
43665;DHT22;29263;48.172;11.484;2023-04-25T04:54:16;7.00;99.90
43665;DHT22;29263;48.172;11.484;2023-04-25T04:56:45;7.00;99.90
43665;DHT22;29263;48.172;11.484;2023-04-25T04:59:11;7.00;99.90
43665;DHT22;29263;48.172;11.484;2023-04-25T05:01:37;6.90;99.90
43665;DHT22;29263;48.172;11.484;2023-04-25T05:04:03;6.90;99.90
43665;DHT22;29263;48.172;11.484;2023-04-25T05:06:30;6.90;99.90
43665;DHT22;29263;48.172;11.484;2023-04-25T05:08:57;6.90;99.90
43665;DHT22;29263;48.172;11.484;2023-04-25T05:11:23;6.90;99.90
43665;DHT22;29263;48.172;11.484;2023-04-25T05:13:51;6.90;99.90
43665;DHT22;29263;48.172;11.484;2023-04-25T05:16:17;7.00;99.90
43665;DHT22;29263;48.172;11.484;2023-04-25T05:18:43;6.90;99.90
43665;DHT22;29263;48.172;11.484;2023-04-25T05:21:09;7.00;99.90
43665;DHT22;29263;48.172;11.484;2023-04-25T05:23:34;7.00;99.90
43665;DHT22;29263;48.172;11.484;2023-04-25T05:26:00;7.00;99.90
43665;DHT22;29263;48.172;11.484;2023-04-25T05:28:26;7.00;99.90
43665;DHT22;29263;48.172;11.484;2023-04-25T05:30:52;7.00;99.90
43665;DHT22;29263;48.172;11.484;2023-04-25T05:33:18;7.00;99.90
43665;DHT22;29263;48.172;11.484;2023-04-25T05:35:44;7.00;99.90
43665;DHT22;29263;48.172;11.484;2023-04-25T05:38:10;7.10;99.90
43665;DHT22;29263;48.172;11.484;2023-04-25T05:40:36;7.10;99.90
43665;DHT22;29263;48.172;11.484;2023-04-25T05:43:01;7.00;99.90
43665;DHT22;29263;48.172;11.484;2023-04-25T05:45:27;7.00;99.90
43665;DHT22;29263;48.172;11.484;2023-04-25T05:47:52;7.00;99.90
43665;DHT22;29263;48.172;11.484;2023-04-25T05:50:18;7.00;99.90
43665;DHT22;29263;48.172;11.484;2023-04-25T05:52:44;7.00;99.90
43665;DHT22;29263;48.172;11.484;2023-04-25T05:55:09;7.10;99.90
43665;DHT22;29263;48.172;11.484;2023-04-25T05:57:35;7.10;99.90
43665;DHT22;29263;48.172;11.484;2023-04-25T06:00:01;7.20;99.90
43665;DHT22;29263;48.172;11.484;2023-04-25T06:02:27;7.10;99.90
43665;DHT22;29263;48.172;11.484;2023-04-25T06:04:52;7.10;99.90
43665;DHT22;29263;48.172;11.484;2023-04-25T06:07:21;7.00;99.90
43665;DHT22;29263;48.172;11.484;2023-04-25T06:09:47;6.90;99.90
43665;DHT22;29263;48.172;11.484;2023-04-25T06:12:13;6.80;99.90
43665;DHT22;29263;48.172;11.484;2023-04-25T06:14:38;6.80;99.90
43665;DHT22;29263;48.172;11.484;2023-04-25T06:17:07;6.80;99.90
43665;DHT22;29263;48.172;11.484;2023-04-25T06:19:34;6.70;99.90
43665;DHT22;29263;48.172;11.484;2023-04-25T06:22:00;6.80;99.90
43665;DHT22;29263;48.172;11.484;2023-04-25T06:24:26;6.80;99.90
43665;DHT22;29263;48.172;11.484;2023-04-25T06:26:52;6.70;99.90
43665;DHT22;29263;48.172;11.484;2023-04-25T06:29:18;6.70;99.90
43665;DHT22;29263;48.172;11.484;2023-04-25T06:31:43;6.70;99.90
43665;DHT22;29263;48.172;11.484;2023-04-25T06:34:09;6.70;99.90
43665;DHT22;29263;48.172;11.484;2023-04-25T06:36:35;6.70;99.90
43665;DHT22;29263;48.172;11.484;2023-04-25T06:39:01;6.80;99.90
43665;DHT22;29263;48.172;11.484;2023-04-25T06:41:26;6.90;99.90
43665;DHT22;29263;48.172;11.484;2023-04-25T06:43:52;7.10;99.90
43665;DHT22;29263;48.172;11.484;2023-04-25T06:46:18;7.40;99.90
43665;DHT22;29263;48.172;11.484;2023-04-25T06:48:43;7.60;99.90
43665;DHT22;29263;48.172;11.484;2023-04-25T06:51:09;7.90;99.90
43665;DHT22;29263;48.172;11.484;2023-04-25T06:53:35;8.30;99.90
43665;DHT22;29263;48.172;11.484;2023-04-25T06:56:01;8.60;99.90
43665;DHT22;29263;48.172;11.484;2023-04-25T06:58:27;8.80;99.90
43665;DHT22;29263;48.172;11.484;2023-04-25T07:00:52;8.80;99.90
43665;DHT22;29263;48.172;11.484;2023-04-25T07:03:18;8.80;99.90
43665;DHT22;29263;48.172;11.484;2023-04-25T07:05:44;8.80;99.90
43665;DHT22;29263;48.172;11.484;2023-04-25T07:08:11;8.70;99.90
43665;DHT22;29263;48.172;11.484;2023-04-25T07:10:37;8.60;99.90
43665;DHT22;29263;48.172;11.484;2023-04-25T07:13:02;8.50;99.90
43665;DHT22;29263;48.172;11.484;2023-04-25T07:15:28;8.30;99.90
43665;DHT22;29263;48.172;11.484;2023-04-25T07:17:54;8.30;99.90
43665;DHT22;29263;48.172;11.484;2023-04-25T07:20:19;8.30;99.90
43665;DHT22;29263;48.172;11.484;2023-04-25T07:22:45;8.40;99.90
43665;DHT22;29263;48.172;11.484;2023-04-25T07:25:10;8.50;99.90
43665;DHT22;29263;48.172;11.484;2023-04-25T07:27:40;8.50;99.90
43665;DHT22;29263;48.172;11.484;2023-04-25T07:30:06;8.60;99.90
43665;DHT22;29263;48.172;11.484;2023-04-25T07:32:32;8.60;99.90
43665;DHT22;29263;48.172;11.484;2023-04-25T07:34:58;8.60;99.90
43665;DHT22;29263;48.172;11.484;2023-04-25T07:37:23;8.70;99.90
43665;DHT22;29263;48.172;11.484;2023-04-25T07:39:49;8.70;99.90
43665;DHT22;29263;48.172;11.484;2023-04-25T07:42:14;8.80;99.90
43665;DHT22;29263;48.172;11.484;2023-04-25T07:44:40;8.80;99.90
43665;DHT22;29263;48.172;11.484;2023-04-25T07:47:07;8.80;99.90
43665;DHT22;29263;48.172;11.484;2023-04-25T07:49:37;8.90;99.90
43665;DHT22;29263;48.172;11.484;2023-04-25T07:52:04;9.10;99.90
43665;DHT22;29263;48.172;11.484;2023-04-25T07:54:30;9.40;99.90
43665;DHT22;29263;48.172;11.484;2023-04-25T07:56:56;9.40;99.90
43665;DHT22;29263;48.172;11.484;2023-04-25T07:59:22;9.50;99.90
43665;DHT22;29263;48.172;11.484;2023-04-25T08:01:48;9.80;99.90
43665;DHT22;29263;48.172;11.484;2023-04-25T08:04:14;9.90;99.90
43665;DHT22;29263;48.172;11.484;2023-04-25T08:06:39;10.10;99.90
43665;DHT22;29263;48.172;11.484;2023-04-25T08:09:06;10.00;99.90
43665;DHT22;29263;48.172;11.484;2023-04-25T08:11:32;10.10;99.90
43665;DHT22;29263;48.172;11.484;2023-04-25T08:13:57;10.10;99.90
43665;DHT22;29263;48.172;11.484;2023-04-25T08:16:26;9.90;99.90
43665;DHT22;29263;48.172;11.484;2023-04-25T08:18:51;9.90;99.90
43665;DHT22;29263;48.172;11.484;2023-04-25T08:21:17;10.00;99.90
43665;DHT22;29263;48.172;11.484;2023-04-25T08:23:42;10.00;99.90
43665;DHT22;29263;48.172;11.484;2023-04-25T08:26:08;10.00;99.90
43665;DHT22;29263;48.172;11.484;2023-04-25T08:28:34;10.00;99.90
43665;DHT22;29263;48.172;11.484;2023-04-25T08:30:59;10.00;99.90
43665;DHT22;29263;48.172;11.484;2023-04-25T08:33:25;10.00;99.90
43665;DHT22;29263;48.172;11.484;2023-04-25T08:35:51;10.10;99.90
43665;DHT22;29263;48.172;11.484;2023-04-25T08:38:18;10.10;94.50
43665;DHT22;29263;48.172;11.484;2023-04-25T08:40:44;10.10;93.40
43665;DHT22;29263;48.172;11.484;2023-04-25T08:43:10;10.20;91.70
43665;DHT22;29263;48.172;11.484;2023-04-25T08:45:42;10.50;89.20
43665;DHT22;29263;48.172;11.484;2023-04-25T08:48:12;10.80;88.80
43665;DHT22;29263;48.172;11.484;2023-04-25T08:50:46;11.10;90.40
43665;DHT22;29263;48.172;11.484;2023-04-25T08:53:16;11.40;91.30
43665;DHT22;29263;48.172;11.484;2023-04-25T08:55:45;11.80;77.00
43665;DHT22;29263;48.172;11.484;2023-04-25T08:58:12;12.00;78.00
43665;DHT22;29263;48.172;11.484;2023-04-25T09:00:39;12.10;68.50
43665;DHT22;29263;48.172;11.484;2023-04-25T09:03:04;12.10;67.80
43665;DHT22;29263;48.172;11.484;2023-04-25T09:05:33;12.00;67.40
43665;DHT22;29263;48.172;11.484;2023-04-25T09:07:58;12.00;66.70
43665;DHT22;29263;48.172;11.484;2023-04-25T09:10:26;11.70;68.80
43665;DHT22;29263;48.172;11.484;2023-04-25T09:13:12;11.60;71.60
43665;DHT22;29263;48.172;11.484;2023-04-25T09:15:53;11.50;65.80
43665;DHT22;29263;48.172;11.484;2023-04-25T09:18:37;11.40;67.50
43665;DHT22;29263;48.172;11.484;2023-04-25T09:21:07;11.40;67.20
43665;DHT22;29263;48.172;11.484;2023-04-25T09:23:53;11.40;68.40
43665;DHT22;29263;48.172;11.484;2023-04-25T09:26:20;11.60;67.60
43665;DHT22;29263;48.172;11.484;2023-04-25T09:28:46;11.80;65.40
43665;DHT22;29263;48.172;11.484;2023-04-25T09:31:21;11.90;64.00
43665;DHT22;29263;48.172;11.484;2023-04-25T09:33:47;12.20;63.70
43665;DHT22;29263;48.172;11.484;2023-04-25T09:36:13;12.40;62.30
43665;DHT22;29263;48.172;11.484;2023-04-25T09:38:43;12.40;60.40
43665;DHT22;29263;48.172;11.484;2023-04-25T09:41:10;12.20;63.10
43665;DHT22;29263;48.172;11.484;2023-04-25T09:43:37;12.20;63.90
43665;DHT22;29263;48.172;11.484;2023-04-25T09:46:04;12.00;63.60
43665;DHT22;29263;48.172;11.484;2023-04-25T09:48:32;12.10;62.60
43665;DHT22;29263;48.172;11.484;2023-04-25T09:51:09;12.30;66.60
43665;DHT22;29263;48.172;11.484;2023-04-25T09:53:36;12.50;63.00
43665;DHT22;29263;48.172;11.484;2023-04-25T09:56:07;12.60;62.90
43665;DHT22;29263;48.172;11.484;2023-04-25T09:58:34;12.70;60.70
43665;DHT22;29263;48.172;11.484;2023-04-25T10:01:02;12.70;63.00
43665;DHT22;29263;48.172;11.484;2023-04-25T10:03:32;12.80;61.20
43665;DHT22;29263;48.172;11.484;2023-04-25T10:06:02;12.80;61.30
43665;DHT22;29263;48.172;11.484;2023-04-25T10:08:33;13.00;59.70
43665;DHT22;29263;48.172;11.484;2023-04-25T10:11:01;13.30;58.70
43665;DHT22;29263;48.172;11.484;2023-04-25T10:13:29;13.40;58.30
43665;DHT22;29263;48.172;11.484;2023-04-25T10:15:56;13.60;58.50
43665;DHT22;29263;48.172;11.484;2023-04-25T10:18:24;13.80;55.40
43665;DHT22;29263;48.172;11.484;2023-04-25T10:20:50;13.50;53.30
43665;DHT22;29263;48.172;11.484;2023-04-25T10:23:16;13.30;56.90
43665;DHT22;29263;48.172;11.484;2023-04-25T10:25:42;13.10;58.00
43665;DHT22;29263;48.172;11.484;2023-04-25T10:28:09;12.80;59.50
43665;DHT22;29263;48.172;11.484;2023-04-25T10:30:34;12.60;62.90
43665;DHT22;29263;48.172;11.484;2023-04-25T10:33:00;12.20;64.40
43665;DHT22;29263;48.172;11.484;2023-04-25T10:35:28;11.90;67.70
43665;DHT22;29263;48.172;11.484;2023-04-25T10:40:26;11.40;62.30
43665;DHT22;29263;48.172;11.484;2023-04-25T10:42:53;11.30;60.70
43665;DHT22;29263;48.172;11.484;2023-04-25T10:45:20;11.20;60.70
43665;DHT22;29263;48.172;11.484;2023-04-25T10:47:46;11.10;62.60
43665;DHT22;29263;48.172;11.484;2023-04-25T10:50:14;11.10;64.90
43665;DHT22;29263;48.172;11.484;2023-04-25T10:52:40;11.00;67.50
43665;DHT22;29263;48.172;11.484;2023-04-25T10:55:06;11.00;69.30
43665;DHT22;29263;48.172;11.484;2023-04-25T10:57:41;10.90;67.40
43665;DHT22;29263;48.172;11.484;2023-04-25T11:00:11;10.70;69.40
43665;DHT22;29263;48.172;11.484;2023-04-25T11:02:57;10.60;73.20
43665;DHT22;29263;48.172;11.484;2023-04-25T11:05:32;10.50;78.90
43665;DHT22;29263;48.172;11.484;2023-04-25T11:07:59;10.40;86.00
43665;DHT22;29263;48.172;11.484;2023-04-25T11:10:26;10.30;97.00
43665;DHT22;29263;48.172;11.484;2023-04-25T11:12:52;10.20;99.90
43665;DHT22;29263;48.172;11.484;2023-04-25T11:15:18;10.00;99.90
43665;DHT22;29263;48.172;11.484;2023-04-25T11:17:43;9.90;99.90
43665;DHT22;29263;48.172;11.484;2023-04-25T11:20:12;9.90;99.90
43665;DHT22;29263;48.172;11.484;2023-04-25T11:22:39;9.90;99.90
43665;DHT22;29263;48.172;11.484;2023-04-25T11:25:09;10.00;99.90
43665;DHT22;29263;48.172;11.484;2023-04-25T11:27:38;10.10;99.90
43665;DHT22;29263;48.172;11.484;2023-04-25T11:30:12;10.20;86.30
43665;DHT22;29263;48.172;11.484;2023-04-25T11:32:40;10.30;94.50
43665;DHT22;29263;48.172;11.484;2023-04-25T11:35:06;10.40;97.40
43665;DHT22;29263;48.172;11.484;2023-04-25T11:37:32;10.50;92.40
43665;DHT22;29263;48.172;11.484;2023-04-25T11:39:59;10.60;94.00
43665;DHT22;29263;48.172;11.484;2023-04-25T11:42:25;10.70;84.50
43665;DHT22;29263;48.172;11.484;2023-04-25T11:44:52;10.60;80.50
43665;DHT22;29263;48.172;11.484;2023-04-25T11:47:17;10.40;91.20
43665;DHT22;29263;48.172;11.484;2023-04-25T11:49:43;10.20;99.50
43665;DHT22;29263;48.172;11.484;2023-04-25T11:52:08;9.90;99.90
43665;DHT22;29263;48.172;11.484;2023-04-25T11:54:36;9.70;99.90
43665;DHT22;29263;48.172;11.484;2023-04-25T11:57:02;9.50;99.90
43665;DHT22;29263;48.172;11.484;2023-04-25T11:59:28;9.10;99.90
43665;DHT22;29263;48.172;11.484;2023-04-25T12:01:54;9.00;99.90
43665;DHT22;29263;48.172;11.484;2023-04-25T12:04:21;8.90;99.90
43665;DHT22;29263;48.172;11.484;2023-04-25T12:06:49;8.90;99.90
43665;DHT22;29263;48.172;11.484;2023-04-25T12:09:36;8.90;99.90
43665;DHT22;29263;48.172;11.484;2023-04-25T12:12:01;8.90;99.90
43665;DHT22;29263;48.172;11.484;2023-04-25T12:14:30;8.90;99.90
43665;DHT22;29263;48.172;11.484;2023-04-25T12:16:58;8.90;99.90
43665;DHT22;29263;48.172;11.484;2023-04-25T12:19:24;8.90;99.90
43665;DHT22;29263;48.172;11.484;2023-04-25T12:21:52;8.90;99.90
43665;DHT22;29263;48.172;11.484;2023-04-25T12:24:27;9.00;99.90
43665;DHT22;29263;48.172;11.484;2023-04-25T12:27:03;9.10;99.90
43665;DHT22;29263;48.172;11.484;2023-04-25T12:29:30;9.20;99.90
43665;DHT22;29263;48.172;11.484;2023-04-25T12:31:56;9.30;99.90
43665;DHT22;29263;48.172;11.484;2023-04-25T12:34:23;9.20;99.90
43665;DHT22;29263;48.172;11.484;2023-04-25T12:36:49;9.20;99.90
43665;DHT22;29263;48.172;11.484;2023-04-25T12:39:23;9.10;99.90
43665;DHT22;29263;48.172;11.484;2023-04-25T12:41:49;9.20;99.90
43665;DHT22;29263;48.172;11.484;2023-04-25T12:44:15;9.30;99.90
43665;DHT22;29263;48.172;11.484;2023-04-25T12:46:42;9.20;99.90
43665;DHT22;29263;48.172;11.484;2023-04-25T12:49:08;9.10;99.90
43665;DHT22;29263;48.172;11.484;2023-04-25T12:51:34;9.00;99.90
43665;DHT22;29263;48.172;11.484;2023-04-25T12:54:01;9.00;99.90
43665;DHT22;29263;48.172;11.484;2023-04-25T12:56:27;8.70;99.90
43665;DHT22;29263;48.172;11.484;2023-04-25T12:58:53;8.70;99.90
43665;DHT22;29263;48.172;11.484;2023-04-25T13:01:20;8.70;99.90
43665;DHT22;29263;48.172;11.484;2023-04-25T13:03:46;8.70;99.90
43665;DHT22;29263;48.172;11.484;2023-04-25T13:06:11;8.70;99.90
43665;DHT22;29263;48.172;11.484;2023-04-25T13:08:38;8.60;99.90
43665;DHT22;29263;48.172;11.484;2023-04-25T13:11:05;8.50;99.90
43665;DHT22;29263;48.172;11.484;2023-04-25T13:13:31;8.40;99.90
43665;DHT22;29263;48.172;11.484;2023-04-25T13:15:57;8.40;99.90
43665;DHT22;29263;48.172;11.484;2023-04-25T13:18:23;8.40;99.90
43665;DHT22;29263;48.172;11.484;2023-04-25T13:20:54;8.40;99.90
43665;DHT22;29263;48.172;11.484;2023-04-25T13:23:20;8.20;99.90
43665;DHT22;29263;48.172;11.484;2023-04-25T13:25:46;8.10;99.90
43665;DHT22;29263;48.172;11.484;2023-04-25T13:28:12;8.00;99.90
43665;DHT22;29263;48.172;11.484;2023-04-25T13:30:38;7.90;99.90
43665;DHT22;29263;48.172;11.484;2023-04-25T13:33:03;7.80;99.90
43665;DHT22;29263;48.172;11.484;2023-04-25T13:35:30;7.60;99.90
43665;DHT22;29263;48.172;11.484;2023-04-25T13:37:56;7.70;99.90
43665;DHT22;29263;48.172;11.484;2023-04-25T13:40:22;7.70;99.90
43665;DHT22;29263;48.172;11.484;2023-04-25T13:42:47;7.80;99.90
43665;DHT22;29263;48.172;11.484;2023-04-25T13:45:13;7.70;99.90
43665;DHT22;29263;48.172;11.484;2023-04-25T13:47:39;7.80;99.90
43665;DHT22;29263;48.172;11.484;2023-04-25T13:50:05;7.90;99.90
43665;DHT22;29263;48.172;11.484;2023-04-25T13:52:31;7.80;99.90
43665;DHT22;29263;48.172;11.484;2023-04-25T13:54:57;7.80;99.90
43665;DHT22;29263;48.172;11.484;2023-04-25T13:57:23;7.80;99.90
43665;DHT22;29263;48.172;11.484;2023-04-25T13:59:48;7.70;99.90
43665;DHT22;29263;48.172;11.484;2023-04-25T14:02:14;7.80;99.90
43665;DHT22;29263;48.172;11.484;2023-04-25T14:04:40;7.80;99.90
43665;DHT22;29263;48.172;11.484;2023-04-25T14:07:06;7.90;99.90
43665;DHT22;29263;48.172;11.484;2023-04-25T14:09:32;7.80;99.90
43665;DHT22;29263;48.172;11.484;2023-04-25T14:11:57;7.80;99.90
43665;DHT22;29263;48.172;11.484;2023-04-25T14:14:23;7.90;99.90
43665;DHT22;29263;48.172;11.484;2023-04-25T14:16:50;8.00;99.90
43665;DHT22;29263;48.172;11.484;2023-04-25T14:19:20;8.10;99.90
43665;DHT22;29263;48.172;11.484;2023-04-25T14:21:46;8.30;99.90
43665;DHT22;29263;48.172;11.484;2023-04-25T14:24:13;8.50;99.90
43665;DHT22;29263;48.172;11.484;2023-04-25T14:26:38;8.70;99.90
43665;DHT22;29263;48.172;11.484;2023-04-25T14:29:05;8.80;99.90
43665;DHT22;29263;48.172;11.484;2023-04-25T14:31:32;8.70;99.90
43665;DHT22;29263;48.172;11.484;2023-04-25T14:33:58;8.70;99.90
43665;DHT22;29263;48.172;11.484;2023-04-25T14:36:23;8.80;99.90
43665;DHT22;29263;48.172;11.484;2023-04-25T14:38:49;8.90;99.90
43665;DHT22;29263;48.172;11.484;2023-04-25T14:41:14;8.90;99.90
43665;DHT22;29263;48.172;11.484;2023-04-25T14:43:40;8.80;99.90
43665;DHT22;29263;48.172;11.484;2023-04-25T14:46:06;8.80;99.90
43665;DHT22;29263;48.172;11.484;2023-04-25T14:48:33;8.80;99.90
43665;DHT22;29263;48.172;11.484;2023-04-25T14:50:59;9.00;99.90
43665;DHT22;29263;48.172;11.484;2023-04-25T14:53:25;9.00;99.90
43665;DHT22;29263;48.172;11.484;2023-04-25T14:55:51;9.10;99.90
43665;DHT22;29263;48.172;11.484;2023-04-25T14:58:16;9.10;99.90
43665;DHT22;29263;48.172;11.484;2023-04-25T15:00:42;9.10;99.90
43665;DHT22;29263;48.172;11.484;2023-04-25T15:03:09;8.90;99.90
43665;DHT22;29263;48.172;11.484;2023-04-25T15:05:37;8.90;99.90
43665;DHT22;29263;48.172;11.484;2023-04-25T15:08:03;8.80;99.90
43665;DHT22;29263;48.172;11.484;2023-04-25T15:10:32;8.70;99.90
43665;DHT22;29263;48.172;11.484;2023-04-25T15:13:00;8.60;99.90
43665;DHT22;29263;48.172;11.484;2023-04-25T15:15:26;8.70;99.90
43665;DHT22;29263;48.172;11.484;2023-04-25T15:17:52;8.90;99.90
43665;DHT22;29263;48.172;11.484;2023-04-25T15:20:20;9.10;99.90
43665;DHT22;29263;48.172;11.484;2023-04-25T15:22:46;9.50;99.90
43665;DHT22;29263;48.172;11.484;2023-04-25T15:25:14;10.10;99.90
43665;DHT22;29263;48.172;11.484;2023-04-25T15:27:40;10.20;99.90